Time;durP1;ratioP1;P1;durP2;ratioP2;P2;SDS_P1;SDS_P2;PMS_P1;PMS_P2;Temp;Humidity;BMP_temperature;BMP_pressure;BME280_temperature;BME280_humidity;BME280_pressure;Samples;Min_cycle;Max_cycle;Signal;HPM_P1;HPM_P2
2023/02/01 00:00:32;;;;;;;;;;;;;;;12.85;70.25;101585.88;1263857;23;700;-68
2023/02/01 00:01:23;;;;;;;;;;;;;;;12.89;70.60;101591.03;1265839;23;631;-69
2023/02/01 00:02:13;;;;;;;;;;;;;;;12.86;71.15;101590.28;1265804;23;625;-68
2023/02/01 00:03:05;;;;;;;;;;;;;;;12.84;70.81;101577.94;1266614;23;627;-68
2023/02/01 00:03:55;;;;;;;;;;;;;;;12.85;70.82;101577.84;1264411;23;684;-68
2023/02/01 00:04:46;;;;;;;;;;;;;;;12.83;71.16;101584.25;1266637;23;645;-68
2023/02/01 00:05:36;;;;;;;;;;;;;;;12.84;70.45;101596.69;1265997;23;622;-68
2023/02/01 00:06:27;;;;;;;;;;;;;;;12.82;70.13;101588.75;1264671;23;664;-68
2023/02/01 00:07:17;;;;;;;;;;;;;;;12.82;71.12;101585.22;1266951;23;645;-68
2023/02/01 00:08:07;;;;;;;;;;;;;;;12.83;70.18;101593.13;1267368;23;637;-68
2023/02/01 00:08:58;;;;;;;;;;;;;;;12.85;70.93;101593.91;1265423;23;614;-68
2023/02/01 00:09:48;;;;;;;;;;;;;;;12.84;70.50;101588.66;1266070;23;750;-68
2023/02/01 00:10:39;;;;;;;;;;;;;;;12.85;70.22;101587.69;1266571;23;1045;-68
2023/02/01 00:11:29;;;;;;;;;;;;;;;12.83;70.82;101586.94;1265864;23;630;-68
2023/02/01 00:12:20;;;;;;;;;;;;;;;12.84;70.58;101581.50;1266029;23;653;-68
2023/02/01 00:13:10;;;;;;;;;;;;;;;12.82;70.37;101587.88;1265693;23;614;-68
2023/02/01 00:14:00;;;;;;;;;;;;;;;12.83;70.58;101585.13;1265965;23;640;-68
2023/02/01 00:14:51;;;;;;;;;;;;;;;12.83;70.29;101592.28;1265169;23;683;-68
2023/02/01 00:15:41;;;;;;;;;;;;;;;12.83;70.22;101595.81;1265909;23;653;-68
2023/02/01 00:16:32;;;;;;;;;;;;;;;12.81;70.45;101587.03;1266577;23;627;-68
2023/02/01 00:17:22;;;;;;;;;;;;;;;12.81;70.46;101597.72;1265763;23;645;-68
2023/02/01 00:18:13;;;;;;;;;;;;;;;12.82;70.96;101591.41;1264642;23;669;-68
2023/02/01 00:19:03;;;;;;;;;;;;;;;12.81;70.12;101588.84;1265874;23;627;-68
2023/02/01 00:19:54;;;;;;;;;;;;;;;12.82;71.07;101598.59;1266120;23;624;-69
2023/02/01 00:20:44;;;;;;;;;;;;;;;12.84;70.03;101583.31;1265715;23;622;-68
2023/02/01 00:21:35;;;;;;;;;;;;;;;12.80;70.50;101582.63;1264555;23;649;-68
2023/02/01 00:22:25;;;;;;;;;;;;;;;12.80;70.98;101587.97;1264045;23;618;-69
2023/02/01 00:23:15;;;;;;;;;;;;;;;12.80;70.85;101585.31;1265953;23;646;-69
2023/02/01 00:24:06;;;;;;;;;;;;;;;12.79;70.32;101586.25;1265569;23;587;-69
2023/02/01 00:24:56;;;;;;;;;;;;;;;12.80;70.69;101587.13;1264074;23;616;-69
2023/02/01 00:25:47;;;;;;;;;;;;;;;12.79;71.01;101588.94;1266070;23;653;-69
2023/02/01 00:26:37;;;;;;;;;;;;;;;12.79;70.44;101593.41;1265814;23;749;-69
2023/02/01 00:27:27;;;;;;;;;;;;;;;12.80;70.08;101596.00;1264436;23;669;-69
2023/02/01 00:28:18;;;;;;;;;;;;;;;12.79;70.59;101594.28;1263836;23;749;-69
2023/02/01 00:29:08;;;;;;;;;;;;;;;12.79;70.90;101580.03;1265881;23;638;-69
2023/02/01 00:29:59;;;;;;;;;;;;;;;12.81;70.98;101587.03;1265535;23;649;-69
2023/02/01 00:30:49;;;;;;;;;;;;;;;12.79;70.05;101586.25;1265814;23;653;-68
2023/02/01 00:31:40;;;;;;;;;;;;;;;12.80;69.87;101579.09;1264847;23;634;-68
2023/02/01 00:32:31;;;;;;;;;;;;;;;12.79;70.37;101583.56;1267108;23;656;-68
2023/02/01 00:33:22;;;;;;;;;;;;;;;12.79;70.10;101586.25;1267396;23;668;-68
2023/02/01 00:34:12;;;;;;;;;;;;;;;12.78;70.60;101579.19;1265781;23;641;-68
2023/02/01 00:35:03;;;;;;;;;;;;;;;12.79;70.43;101578.22;1266024;23;685;-68
2023/02/01 00:35:53;;;;;;;;;;;;;;;12.78;70.78;101581.84;1265845;23;618;-68
2023/02/01 00:36:44;;;;;;;;;;;;;;;12.79;69.95;101586.25;1265953;23;666;-68
2023/02/01 00:37:34;;;;;;;;;;;;;;;12.78;70.40;101575.66;1263944;23;669;-68
2023/02/01 00:38:24;;;;;;;;;;;;;;;12.79;70.40;101580.03;1265811;23;1926;-69
2023/02/01 00:39:15;;;;;;;;;;;;;;;12.79;70.55;101580.03;1266582;23;657;-68
2023/02/01 00:40:05;;;;;;;;;;;;;;;12.79;70.67;101588.94;1265741;23;617;-68
2023/02/01 00:40:56;;;;;;;;;;;;;;;12.79;69.84;101582.72;1266020;23;606;-68
2023/02/01 00:41:46;;;;;;;;;;;;;;;12.77;69.89;101584.63;1264030;23;615;-68
2023/02/01 00:42:37;;;;;;;;;;;;;;;12.79;70.31;101586.25;1265930;23;622;-68
2023/02/01 00:43:27;;;;;;;;;;;;;;;12.77;70.44;101584.63;1264401;23;685;-68
2023/02/01 00:44:17;;;;;;;;;;;;;;;12.75;69.82;101590.06;1266241;23;653;-68
2023/02/01 00:45:08;;;;;;;;;;;;;;;12.74;70.82;101582.13;1267488;23;601;-68
2023/02/01 00:45:58;;;;;;;;;;;;;;;12.72;70.76;101587.56;1265679;23;760;-68
2023/02/01 00:46:49;;;;;;;;;;;;;;;12.72;70.44;101587.56;1266060;23;609;-67
2023/02/01 00:47:39;;;;;;;;;;;;;;;12.72;70.01;101582.22;1265684;23;649;-68
2023/02/01 00:48:30;;;;;;;;;;;;;;;12.71;69.91;101580.53;1265907;23;685;-67
2023/02/01 00:49:20;;;;;;;;;;;;;;;12.71;70.30;101569.84;1265605;23;654;-67
2023/02/01 00:50:11;;;;;;;;;;;;;;;12.72;70.15;101584.91;1264327;23;626;-67
2023/02/01 00:51:01;;;;;;;;;;;;;;;12.74;70.67;101576.78;1263886;23;666;-68
2023/02/01 00:51:51;;;;;;;;;;;;;;;12.74;69.76;101585.66;1264227;23;696;-68
2023/02/01 00:52:42;;;;;;;;;;;;;;;12.74;69.93;101580.31;1266410;23;686;-67
2023/02/01 00:53:32;;;;;;;;;;;;;;;12.74;69.96;101577.66;1264478;23;627;-67
2023/02/01 00:54:23;;;;;;;;;;;;;;;12.73;69.75;101586.63;1267124;23;677;-67
2023/02/01 00:55:13;;;;;;;;;;;;;;;12.73;70.35;101586.63;1265791;23;642;-67
2023/02/01 00:56:04;;;;;;;;;;;;;;;12.73;70.73;101583.09;1265845;23;661;-67
2023/02/01 00:56:55;;;;;;;;;;;;;;;12.74;70.27;101579.47;1264400;23;619;-68
2023/02/01 00:57:45;;;;;;;;;;;;;;;12.72;70.69;101584.06;1267072;23;613;-68
2023/02/01 00:58:36;;;;;;;;;;;;;;;12.72;69.70;101571.53;1265412;23;1901;-68
2023/02/01 00:59:26;;;;;;;;;;;;;;;12.71;69.87;101574.34;1265722;23;654;-67
2023/02/01 01:00:16;;;;;;;;;;;;;;;12.72;70.06;101581.41;1265826;23;774;-68
2023/02/01 01:01:07;;;;;;;;;;;;;;;12.72;69.86;101576.06;1266556;23;658;-68
2023/02/01 01:01:57;;;;;;;;;;;;;;;12.72;70.26;101586.75;1265769;23;638;-68
2023/02/01 01:02:48;;;;;;;;;;;;;;;12.72;70.26;101576.88;1263704;23;654;-67
2023/02/01 01:03:38;;;;;;;;;;;;;;;12.72;69.68;101571.53;1265695;23;796;-68
2023/02/01 01:04:29;;;;;;;;;;;;;;;12.71;69.71;101569.84;1265858;23;618;-68
2023/02/01 01:05:19;;;;;;;;;;;;;;;12.72;70.67;101568.03;1265681;23;653;-67
2023/02/01 01:06:10;;;;;;;;;;;;;;;12.72;70.57;101560.00;1265956;23;641;-67
2023/02/01 01:07:00;;;;;;;;;;;;;;;12.71;69.64;101563.63;1266420;23;598;-68
2023/02/01 01:07:50;;;;;;;;;;;;;;;12.71;69.69;101561.81;1264297;23;641;-68
2023/02/01 01:08:41;;;;;;;;;;;;;;;12.72;69.84;101573.38;1266345;23;691;-67
2023/02/01 01:09:31;;;;;;;;;;;;;;;12.72;69.73;101568.84;1265700;23;722;-67
2023/02/01 01:10:22;;;;;;;;;;;;;;;12.73;69.87;101567.03;1264432;23;677;-67
2023/02/01 01:11:12;;;;;;;;;;;;;;;12.72;70.49;101570.72;1264472;23;666;-68
2023/02/01 01:12:03;;;;;;;;;;;;;;;12.71;70.23;101561.81;1264724;23;653;-68
2023/02/01 01:12:53;;;;;;;;;;;;;;;12.72;70.59;101570.72;1266788;23;645;-68
2023/02/01 01:13:43;;;;;;;;;;;;;;;12.69;69.59;101570.88;1264262;23;677;-68
2023/02/01 01:14:34;;;;;;;;;;;;;;;12.69;70.13;101569.06;1266432;23;661;-68
2023/02/01 01:15:24;;;;;;;;;;;;;;;12.69;69.80;101573.56;1264178;23;688;-68
2023/02/01 01:16:15;;;;;;;;;;;;;;;12.69;70.51;101568.22;1265856;23;625;-68
2023/02/01 01:17:05;;;;;;;;;;;;;;;12.69;70.16;101574.44;1263912;23;657;-68
2023/02/01 01:17:56;;;;;;;;;;;;;;;12.70;69.95;101570.78;1265859;23;622;-68
2023/02/01 01:18:46;;;;;;;;;;;;;;;12.69;69.84;101570.88;1266410;23;1889;-68
2023/02/01 01:19:36;;;;;;;;;;;;;;;12.67;69.82;101570.97;1265825;23;653;-68
2023/02/01 01:20:27;;;;;;;;;;;;;;;12.66;70.65;101571.94;1265741;23;638;-68
2023/02/01 01:21:17;;;;;;;;;;;;;;;12.64;70.18;101568.50;1265755;23;665;-68
2023/02/01 01:22:08;;;;;;;;;;;;;;;12.65;70.55;101570.22;1266459;23;633;-68
2023/02/01 01:22:58;;;;;;;;;;;;;;;12.65;70.59;101564.88;1264105;23;628;-68
2023/02/01 01:23:49;;;;;;;;;;;;;;;12.66;70.37;101581.78;1264451;23;614;-68
2023/02/01 01:24:39;;;;;;;;;;;;;;;12.66;69.74;101563.91;1265729;23;657;-68
2023/02/01 01:25:30;;;;;;;;;;;;;;;12.64;69.78;101571.16;1265791;23;640;-68
2023/02/01 01:26:20;;;;;;;;;;;;;;;12.65;70.13;101577.38;1266458;23;657;-69
2023/02/01 01:27:10;;;;;;;;;;;;;;;12.65;70.48;101564.00;1265239;23;676;-68
2023/02/01 01:28:01;;;;;;;;;;;;;;;12.66;70.14;101571.06;1266490;23;641;-68
2023/02/01 01:28:51;;;;;;;;;;;;;;;12.68;69.73;101562.00;1265637;23;594;-68
2023/02/01 01:29:42;;;;;;;;;;;;;;;12.66;69.47;101552.34;1265818;23;629;-68
2023/02/01 01:30:32;;;;;;;;;;;;;;;12.68;69.75;101558.47;1265693;23;618;-68
2023/02/01 01:31:23;;;;;;;;;;;;;;;12.65;69.60;101554.16;1265709;23;653;-68
2023/02/01 01:32:13;;;;;;;;;;;;;;;12.64;69.63;101557.78;1265609;23;609;-68
2023/02/01 01:33:04;;;;;;;;;;;;;;;12.66;69.82;101560.38;1265797;23;622;-68
2023/02/01 01:33:54;;;;;;;;;;;;;;;12.66;69.71;101561.25;1264291;23;652;-68
2023/02/01 01:34:45;;;;;;;;;;;;;;;12.66;70.14;101560.38;1265462;23;664;-68
2023/02/01 01:35:35;;;;;;;;;;;;;;;12.66;69.68;101565.72;1267232;23;617;-68
2023/02/01 01:36:25;;;;;;;;;;;;;;;12.62;70.31;101559.69;1265726;23;618;-68
2023/02/01 01:37:16;;;;;;;;;;;;;;;12.64;69.99;101562.28;1265807;23;661;-68
2023/02/01 01:38:06;;;;;;;;;;;;;;;12.63;69.74;101556.06;1265493;23;618;-68
2023/02/01 01:38:57;;;;;;;;;;;;;;;12.63;70.07;101556.06;1265722;23;764;-68
2023/02/01 01:39:47;;;;;;;;;;;;;;;12.64;69.74;101567.63;1266462;23;750;-69
2023/02/01 01:40:37;;;;;;;;;;;;;;;12.64;69.63;101568.50;1265653;23;705;-68
2023/02/01 01:41:28;;;;;;;;;;;;;;;12.66;70.37;101568.41;1263691;23;614;-68
2023/02/01 01:42:18;;;;;;;;;;;;;;;12.62;70.36;101569.53;1265817;23;648;-69
2023/02/01 01:43:09;;;;;;;;;;;;;;;12.63;69.77;101569.44;1265830;23;637;-69
2023/02/01 01:43:59;;;;;;;;;;;;;;;12.64;70.07;101568.50;1265306;23;1087;-68
2023/02/01 01:44:50;;;;;;;;;;;;;;;12.61;69.90;101568.69;1264331;23;614;-69
2023/02/01 01:45:40;;;;;;;;;;;;;;;12.62;70.41;101562.38;1266383;23;638;-68
2023/02/01 01:46:30;;;;;;;;;;;;;;;12.64;69.85;101563.16;1265689;23;638;-68
2023/02/01 01:47:21;;;;;;;;;;;;;;;12.62;69.81;101561.50;1267383;23;656;-68
2023/02/01 01:48:11;;;;;;;;;;;;;;;12.61;70.14;101557.13;1265660;23;621;-68
2023/02/01 01:49:02;;;;;;;;;;;;;;;12.63;70.05;101558.75;1264826;23;658;-68
2023/02/01 01:49:52;;;;;;;;;;;;;;;12.63;69.69;101553.41;1267050;23;661;-68
2023/02/01 01:50:43;;;;;;;;;;;;;;;12.61;69.61;101549.09;1265971;23;664;-68
2023/02/01 01:51:33;;;;;;;;;;;;;;;12.60;70.05;101556.25;1266379;23;618;-68
2023/02/01 01:52:24;;;;;;;;;;;;;;;12.60;69.89;101556.25;1264120;23;685;-68
2023/02/01 01:53:14;;;;;;;;;;;;;;;12.60;70.52;101553.59;1263770;23;611;-68
2023/02/01 01:54:05;;;;;;;;;;;;;;;12.60;69.82;101552.72;1265663;23;618;-68
2023/02/01 01:54:55;;;;;;;;;;;;;;;12.59;69.74;101543.84;1265640;23;642;-68
2023/02/01 01:55:45;;;;;;;;;;;;;;;12.57;70.17;101544.88;1265644;23;614;-68
2023/02/01 01:56:36;;;;;;;;;;;;;;;12.54;70.35;101540.59;1265229;23;650;-69
2023/02/01 01:57:26;;;;;;;;;;;;;;;12.55;70.11;101536.97;1265738;23;622;-69
2023/02/01 01:58:17;;;;;;;;;;;;;;;12.57;69.52;101536.88;1265936;23;673;-68
2023/02/01 01:59:07;;;;;;;;;;;;;;;12.56;69.92;101538.69;1265619;23;647;-68
2023/02/01 01:59:58;;;;;;;;;;;;;;;12.59;69.93;101538.50;1264333;23;600;-69
2023/02/01 02:00:48;;;;;;;;;;;;;;;12.58;69.96;101536.78;1263728;23;607;-69
2023/02/01 02:01:39;;;;;;;;;;;;;;;12.58;70.34;101535.91;1265766;23;684;-69
2023/02/01 02:02:30;;;;;;;;;;;;;;;12.57;70.25;101529.72;1265612;23;602;-68
2023/02/01 02:03:20;;;;;;;;;;;;;;;12.60;70.03;101540.22;1265567;23;727;-69
2023/02/01 02:04:10;;;;;;;;;;;;;;;12.57;70.38;101526.19;1265683;23;634;-69
2023/02/01 02:05:01;;;;;;;;;;;;;;;12.58;70.46;101535.91;1265888;23;705;-69
2023/02/01 02:05:51;;;;;;;;;;;;;;;12.54;69.99;101532.56;1265685;23;625;-69
2023/02/01 02:06:43;;;;;;;;;;;;;;;12.53;70.08;101528.22;1264372;23;662;-69
2023/02/01 02:07:34;;;;;;;;;;;;;;;12.51;70.48;101535.47;1265961;23;747;-69
2023/02/01 02:08:24;;;;;;;;;;;;;;;12.52;69.93;101532.69;1265541;23;639;-69
2023/02/01 02:09:15;;;;;;;;;;;;;;;12.52;70.22;101539.84;1265718;23;637;-69
2023/02/01 02:10:05;;;;;;;;;;;;;;;12.51;69.87;101530.13;1263890;23;657;-69
2023/02/01 02:10:59;;;;;;;;;;;;;;;12.53;69.65;101538.91;1266809;23;625;-69
2023/02/01 02:11:49;;;;;;;;;;;;;;;12.55;69.44;101531.63;1265746;23;647;-69
2023/02/01 02:12:40;;;;;;;;;;;;;;;12.56;69.46;101540.50;1265899;23;661;-69
2023/02/01 02:13:30;;;;;;;;;;;;;;;12.54;69.52;101540.59;1266271;23;638;-69
2023/02/01 02:14:21;;;;;;;;;;;;;;;12.57;69.54;101536.88;1264208;23;681;-68
2023/02/01 02:15:11;;;;;;;;;;;;;;;12.55;70.20;101536.97;1267253;23;676;-69
2023/02/01 02:16:02;;;;;;;;;;;;;;;12.55;69.82;101530.75;1265745;23;669;-68
2023/02/01 02:16:52;;;;;;;;;;;;;;;12.55;70.35;101534.28;1266331;23;615;-68
2023/02/01 02:17:43;;;;;;;;;;;;;;;12.55;69.58;101531.63;1265917;23;676;-68
2023/02/01 02:18:33;;;;;;;;;;;;;;;12.55;70.10;101542.31;1263987;23;1936;-68
2023/02/01 02:19:24;;;;;;;;;;;;;;;12.53;69.22;101538.91;1264351;23;689;-68
2023/02/01 02:20:14;;;;;;;;;;;;;;;12.54;69.83;101523.72;1266495;23;750;-68
2023/02/01 02:21:05;;;;;;;;;;;;;;;12.53;69.97;101522.84;1265730;23;615;-68
2023/02/01 02:21:55;;;;;;;;;;;;;;;12.52;69.00;101527.34;1263690;23;630;-68
2023/02/01 02:22:46;;;;;;;;;;;;;;;12.52;69.16;101515.78;1265603;23;606;-68
2023/02/01 02:23:36;;;;;;;;;;;;;;;12.52;69.15;101513.97;1265461;23;610;-68
2023/02/01 02:24:26;;;;;;;;;;;;;;;12.52;69.71;101527.34;1265631;23;657;-68
2023/02/01 02:25:17;;;;;;;;;;;;;;;12.51;68.94;101514.94;1263864;23;653;-68
2023/02/01 02:26:07;;;;;;;;;;;;;;;12.51;69.42;101511.41;1265545;23;607;-68
2023/02/01 02:26:58;;;;;;;;;;;;;;;12.50;68.95;101513.22;1265836;23;658;-68
2023/02/01 02:27:48;;;;;;;;;;;;;;;12.49;68.52;101507.97;1263891;23;606;-69
2023/02/01 02:28:39;;;;;;;;;;;;;;;12.49;68.49;101505.28;1265783;23;623;-68
2023/02/01 02:29:29;;;;;;;;;;;;;;;12.47;69.05;101507.19;1263931;23;599;-68
2023/02/01 02:30:20;;;;;;;;;;;;;;;12.47;68.73;101507.19;1265713;23;610;-68
2023/02/01 02:31:10;;;;;;;;;;;;;;;12.47;68.71;101508.06;1263740;23;744;-68
2023/02/01 02:32:00;;;;;;;;;;;;;;;12.47;69.04;101513.41;1264005;23;630;-68
2023/02/01 02:32:51;;;;;;;;;;;;;;;12.46;69.23;101517.03;1265997;23;617;-68
2023/02/01 02:33:41;;;;;;;;;;;;;;;12.46;68.58;101505.47;1265562;23;626;-68
2023/02/01 02:34:32;;;;;;;;;;;;;;;12.46;68.38;101505.47;1264806;23;674;-68
2023/02/01 02:35:22;;;;;;;;;;;;;;;12.45;68.30;101509.09;1267866;23;652;-68
2023/02/01 02:36:13;;;;;;;;;;;;;;;12.43;68.18;101497.63;1267290;23;696;-67
2023/02/01 02:37:03;;;;;;;;;;;;;;;12.44;68.99;101502.88;1266304;23;732;-68
2023/02/01 02:37:54;;;;;;;;;;;;;;;12.44;68.69;101508.22;1265814;23;619;-68
2023/02/01 02:38:44;;;;;;;;;;;;;;;12.45;67.90;101525.13;1264162;23;1884;-68
2023/02/01 02:39:34;;;;;;;;;;;;;;;12.45;67.92;101519.78;1267007;23;1015;-67
2023/02/01 02:40:25;;;;;;;;;;;;;;;12.45;68.01;101504.59;1267231;23;649;-67
2023/02/01 02:47:23;;;;;;;;;;;;;;;12.44;68.11;101534.97;1265603;23;643;-67
2023/02/01 02:48:12;;;;;;;;;;;;;;;12.36;67.72;101493.66;1266630;23;650;-68
2023/02/01 02:49:02;;;;;;;;;;;;;;;12.35;67.32;101497.28;1265638;23;678;-68
2023/02/01 02:54:45;;;;;;;;;;;;;;;12.36;67.97;101499.00;1265807;23;647;-68
2023/02/01 02:54:46;;;;;;;;;;;;;;;12.34;68.21;101480.38;1266241;23;700;-68
2023/02/01 02:55:36;;;;;;;;;;;;;;;12.34;67.81;101487.53;1266007;23;971;-68
2023/02/01 03:04:31;;;;;;;;;;;;;;;12.31;67.85;101469.88;1266848;23;637;-68
2023/02/01 03:05:22;;;;;;;;;;;;;;;12.29;67.10;101470.91;1266075;23;598;-69
2023/02/01 03:06:12;;;;;;;;;;;;;;;12.30;67.69;101477.97;1264624;23;1109;-68
2023/02/01 03:07:03;;;;;;;;;;;;;;;12.28;68.09;101475.41;1267362;23;641;-68
2023/02/01 03:07:53;;;;;;;;;;;;;;;12.28;67.09;101472.72;1267660;23;606;-68
2023/02/01 03:08:45;;;;;;;;;;;;;;;12.30;67.18;101472.63;1265508;23;641;-68
2023/02/01 03:09:35;;;;;;;;;;;;;;;12.29;66.75;101486.94;1265871;23;641;-68
2023/02/01 03:10:25;;;;;;;;;;;;;;;12.28;67.65;101474.53;1264266;23;650;-68
2023/02/01 03:11:16;;;;;;;;;;;;;;;12.29;66.52;101457.56;1266279;23;617;-68
2023/02/01 03:13:16;;;;;;;;;;;;;;;12.28;67.08;101477.22;1266822;23;1179;-69
2023/02/01 03:14:06;;;;;;;;;;;;;;;12.27;66.83;101472.81;1267678;23;700;-68
2023/02/01 03:14:56;;;;;;;;;;;;;;;12.27;67.09;101468.34;1265957;23;666;-68
2023/02/01 03:15:47;;;;;;;;;;;;;;;12.27;67.34;101464.81;1264626;23;618;-68
2023/02/01 03:16:37;;;;;;;;;;;;;;;12.25;67.69;101472.91;1264577;23;638;-68
2023/02/01 03:17:28;;;;;;;;;;;;;;;12.27;66.69;101475.50;1267320;23;676;-68
2023/02/01 03:18:18;;;;;;;;;;;;;;;12.27;66.57;101467.47;1267612;23;629;-68
2023/02/01 03:19:09;;;;;;;;;;;;;;;12.25;66.78;101470.25;1266212;23;677;-68
2023/02/01 03:19:59;;;;;;;;;;;;;;;12.24;66.75;101468.53;1265932;23;681;-68
2023/02/01 03:20:50;;;;;;;;;;;;;;;12.24;67.53;101478.34;1264924;23;668;-68
2023/02/01 03:21:40;;;;;;;;;;;;;;;12.26;66.82;101471.09;1267232;23;598;-68
2023/02/01 03:22:31;;;;;;;;;;;;;;;12.25;67.30;101470.25;1267653;23;632;-67
2023/02/01 03:23:21;;;;;;;;;;;;;;;12.23;66.88;101465.94;1265382;23;642;-68
2023/02/01 03:24:12;;;;;;;;;;;;;;;12.23;67.24;101466.81;1266090;23;622;-68
2023/02/01 03:25:02;;;;;;;;;;;;;;;12.23;67.02;101466.81;1265855;23;636;-68
2023/02/01 03:25:53;;;;;;;;;;;;;;;12.22;67.33;101472.22;1266171;23;645;-68
2023/02/01 03:26:43;;;;;;;;;;;;;;;12.22;66.56;101474.91;1265823;23;649;-68
2023/02/01 03:27:34;;;;;;;;;;;;;;;12.22;66.77;101474.91;1266116;23;590;-68
2023/02/01 03:28:24;;;;;;;;;;;;;;;12.21;67.54;101470.50;1266605;23;619;-69
2023/02/01 03:29:14;;;;;;;;;;;;;;;12.21;67.31;101467.84;1265952;23;723;-68
2023/02/01 03:30:08;;;;;;;;;;;;;;;12.20;66.89;101476.81;1266078;23;622;-68
2023/02/01 03:30:58;;;;;;;;;;;;;;;12.22;66.79;101482.91;1266623;23;627;-68
2023/02/01 03:31:49;;;;;;;;;;;;;;;12.21;66.82;101475.84;1265860;23;617;-68
2023/02/01 03:33:48;;;;;;;;;;;;;;;12.20;66.78;101474.13;1266878;23;672;-68
2023/02/01 03:34:38;;;;;;;;;;;;;;;12.20;66.67;101466.13;1265733;23;633;-68
2023/02/01 03:35:29;;;;;;;;;;;;;;;12.20;66.55;101482.16;1266063;23;622;-68
2023/02/01 03:36:19;;;;;;;;;;;;;;;12.19;67.48;101491.97;1266580;23;640;-68
2023/02/01 03:37:10;;;;;;;;;;;;;;;12.19;66.65;101475.94;1264531;23;638;-68
2023/02/01 03:38:00;;;;;;;;;;;;;;;12.18;66.80;101475.09;1265276;23;616;-68
2023/02/01 03:38:51;;;;;;;;;;;;;;;12.17;67.23;101472.53;1264263;23;1930;-68
2023/02/01 03:39:41;;;;;;;;;;;;;;;12.18;67.42;101472.41;1267539;23;668;-68
2023/02/01 03:40:32;;;;;;;;;;;;;;;12.18;67.30;101481.41;1264299;23;665;-68
2023/02/01 03:41:22;;;;;;;;;;;;;;;12.18;66.70;101473.41;1266076;23;643;-68
2023/02/01 03:42:13;;;;;;;;;;;;;;;12.16;66.80;101465.47;1265890;23;610;-68
2023/02/01 03:43:04;;;;;;;;;;;;;;;12.14;66.59;101467.38;1265978;23;638;-68
2023/02/01 03:43:55;;;;;;;;;;;;;;;12.14;67.54;101468.25;1265997;23;1119;-68
2023/02/01 03:44:45;;;;;;;;;;;;;;;12.13;67.42;101485.22;1264589;23;633;-68
2023/02/01 03:45:36;;;;;;;;;;;;;;;12.14;67.43;101478.06;1267156;23;1135;-68
2023/02/01 03:46:27;;;;;;;;;;;;;;;12.13;66.73;101466.53;1267713;23;763;-68
2023/02/01 03:47:19;;;;;;;;;;;;;;;12.11;67.03;101473.78;1264211;23;570;-68
2023/02/01 03:48:10;;;;;;;;;;;;;;;12.11;66.25;101473.78;1266235;23;638;-68
2023/02/01 03:49:00;;;;;;;;;;;;;;;12.11;66.40;101481.78;1264138;23;633;-68
2023/02/01 03:49:51;;;;;;;;;;;;;;;12.11;66.87;101479.09;1266032;23;708;-68
2023/02/01 03:50:41;;;;;;;;;;;;;;;12.11;66.58;101473.78;1266668;23;630;-68
2023/02/01 03:51:32;;;;;;;;;;;;;;;12.10;67.21;101481.88;1264168;23;821;-69
2023/02/01 03:52:22;;;;;;;;;;;;;;;12.10;66.25;101476.53;1265525;23;621;-68
2023/02/01 03:53:14;;;;;;;;;;;;;;;12.07;66.79;101472.22;1264436;23;704;-68
2023/02/01 03:54:05;;;;;;;;;;;;;;;12.08;66.21;101476.63;1265921;23;654;-68
2023/02/01 03:54:55;;;;;;;;;;;;;;;12.09;66.53;101475.66;1266053;23;630;-68
2023/02/01 03:55:45;;;;;;;;;;;;;;;12.09;67.27;101483.69;1265848;23;653;-68
2023/02/01 03:56:36;;;;;;;;;;;;;;;12.07;67.24;101493.59;1266119;23;582;-68
2023/02/01 03:57:26;;;;;;;;;;;;;;;12.07;66.82;101479.38;1264029;23;634;-68
2023/02/01 03:58:17;;;;;;;;;;;;;;;12.07;66.31;101485.59;1265915;23;590;-68
2023/02/01 03:59:07;;;;;;;;;;;;;;;12.07;66.58;101482.91;1267647;23;625;-68
2023/02/01 03:59:57;;;;;;;;;;;;;;;12.06;66.16;101478.53;1264102;23;661;-68
2023/02/01 04:00:48;;;;;;;;;;;;;;;12.05;66.04;101478.63;1266009;23;662;-68
2023/02/01 04:01:38;;;;;;;;;;;;;;;12.05;67.10;101478.63;1265625;23;609;-68
2023/02/01 04:02:29;;;;;;;;;;;;;;;12.05;67.13;101487.50;1265921;23;622;-68
2023/02/01 04:03:19;;;;;;;;;;;;;;;12.04;66.72;101480.44;1266064;23;638;-68
2023/02/01 04:04:10;;;;;;;;;;;;;;;12.03;66.43;101492.06;1265843;23;654;-69
2023/02/01 04:05:00;;;;;;;;;;;;;;;12.05;66.89;101478.63;1264525;23;669;-69
2023/02/01 04:05:50;;;;;;;;;;;;;;;12.05;66.82;101479.47;1265791;23;665;-68
2023/02/01 04:06:41;;;;;;;;;;;;;;;12.06;67.40;101483.00;1264265;23;653;-68
2023/02/01 04:07:31;;;;;;;;;;;;;;;12.06;67.20;101475.00;1266260;23;614;-68
2023/02/01 04:08:22;;;;;;;;;;;;;;;12.05;67.17;101479.47;1271643;23;718;-68
2023/02/01 04:09:12;;;;;;;;;;;;;;;12.05;67.01;101473.28;1265923;23;634;-68
2023/02/01 04:10:03;;;;;;;;;;;;;;;12.04;66.80;101483.09;1264329;23;685;-68
2023/02/01 04:10:53;;;;;;;;;;;;;;;12.04;66.79;101477.75;1264393;23;642;-68
2023/02/01 04:11:44;;;;;;;;;;;;;;;12.04;66.27;101487.59;1266307;23;641;-68
2023/02/01 04:12:34;;;;;;;;;;;;;;;12.04;66.88;101487.59;1271369;23;641;-68
2023/02/01 04:13:25;;;;;;;;;;;;;;;12.03;66.22;101481.38;1271571;23;657;-68
2023/02/01 04:14:15;;;;;;;;;;;;;;;12.02;66.58;101490.34;1266019;23;608;-68
2023/02/01 04:15:05;;;;;;;;;;;;;;;11.99;66.59;101487.88;1265727;23;645;-68
2023/02/01 04:15:56;;;;;;;;;;;;;;;11.99;66.28;101487.88;1264481;23;649;-68
2023/02/01 04:16:46;;;;;;;;;;;;;;;12.00;66.44;101489.56;1266577;23;650;-68
2023/02/01 04:17:37;;;;;;;;;;;;;;;12.00;66.18;101502.94;1265993;23;631;-68
2023/02/01 04:18:28;;;;;;;;;;;;;;;11.99;66.99;101493.22;1267440;23;689;-68
2023/02/01 04:19:18;;;;;;;;;;;;;;;11.98;66.09;101491.50;1264593;23;630;-68
2023/02/01 04:20:09;;;;;;;;;;;;;;;11.98;66.32;101494.19;1265760;23;630;-68
2023/02/01 04:21:00;;;;;;;;;;;;;;;11.98;66.04;101498.66;1265995;23;630;-68
2023/02/01 04:21:51;;;;;;;;;;;;;;;11.98;66.90;101494.19;1265871;23;621;-68
2023/02/01 04:22:41;;;;;;;;;;;;;;;11.96;66.75;101501.41;1266468;23;603;-68
2023/02/01 04:23:32;;;;;;;;;;;;;;;11.97;66.56;101502.28;1265902;23;592;-68
2023/02/01 04:24:22;;;;;;;;;;;;;;;11.95;65.70;101482.81;1265594;23;607;-68
2023/02/01 04:25:13;;;;;;;;;;;;;;;11.93;65.57;101488.25;1265819;23;650;-68
2023/02/01 04:26:03;;;;;;;;;;;;;;;11.93;65.70;101512.28;1266092;23;654;-68
2023/02/01 04:26:53;;;;;;;;;;;;;;;11.93;66.02;101480.22;1265722;23;905;-68
2023/02/01 04:27:44;;;;;;;;;;;;;;;11.93;66.69;101484.72;1264468;23;642;-68
2023/02/01 04:28:34;;;;;;;;;;;;;;;11.94;66.13;101491.78;1264335;23;662;-68
2023/02/01 04:29:25;;;;;;;;;;;;;;;11.93;66.63;101482.91;1266398;23;661;-69
2023/02/01 04:30:15;;;;;;;;;;;;;;;11.93;66.11;101482.03;1267483;23;758;-68
2023/02/01 04:31:05;;;;;;;;;;;;;;;11.92;65.97;101483.84;1264077;23;682;-68
2023/02/01 04:31:56;;;;;;;;;;;;;;;11.92;65.88;101480.31;1265965;23;642;-68
2023/02/01 04:32:46;;;;;;;;;;;;;;;11.91;66.56;101484.81;1264011;23;582;-68
2023/02/01 04:33:37;;;;;;;;;;;;;;;11.90;66.14;101485.75;1265897;23;649;-68
2023/02/01 04:34:27;;;;;;;;;;;;;;;11.89;66.21;101499.19;1265715;23;615;-68
2023/02/01 04:35:18;;;;;;;;;;;;;;;11.89;66.44;101473.34;1265740;23;649;-68
2023/02/01 04:36:08;;;;;;;;;;;;;;;11.86;66.22;101472.66;1266902;23;657;-68
2023/02/01 04:36:59;;;;;;;;;;;;;;;11.88;65.85;101471.63;1265760;23;780;-68
2023/02/01 04:37:49;;;;;;;;;;;;;;;11.88;65.81;101473.44;1265995;23;653;-68
2023/02/01 04:38:39;;;;;;;;;;;;;;;11.89;66.51;101486.69;1265702;23;1893;-68
2023/02/01 04:39:30;;;;;;;;;;;;;;;11.88;66.24;101468.97;1264277;23;642;-68
2023/02/01 04:40:20;;;;;;;;;;;;;;;11.87;66.79;101477.06;1266579;23;598;-68
2023/02/01 04:41:11;;;;;;;;;;;;;;;11.88;66.00;101470.75;1265807;23;606;-68
2023/02/01 04:42:01;;;;;;;;;;;;;;;11.87;66.23;101477.91;1265950;23;622;-68
2023/02/01 04:42:52;;;;;;;;;;;;;;;11.89;66.50;101475.16;1265735;23;582;-68
2023/02/01 04:43:42;;;;;;;;;;;;;;;11.88;66.92;101492.13;1264246;23;1126;-68
2023/02/01 04:44:32;;;;;;;;;;;;;;;11.87;66.27;101485.94;1265737;23;732;-68
2023/02/01 04:45:23;;;;;;;;;;;;;;;11.85;66.43;101474.47;1265849;23;709;-68
2023/02/01 04:46:13;;;;;;;;;;;;;;;11.83;66.43;101471.03;1266466;23;610;-68
2023/02/01 04:47:04;;;;;;;;;;;;;;;11.84;66.50;101467.41;1264672;23;641;-68